Terminal Aerodrome Forecast
Issued by NWS

Home | Current Version | Previous Version | Text Only | Print | Product List | Glossary On
Versions: 1 2 3 4 5 6 7 8 9 10 11 12 13 14 15 16 17
000
FTAK31 PAJN 032337
TAFAWG
TAF
PAWG 032337Z 0400/0424 VRB06KT 6SM -SHSN SCT006 OVC010
      TEMPO 0400/0404 1SM -SHSN BKN005 BKN010 OVC020
     FM040400 VRB05KT 2SM -SHSN BKN006 OVC020
     FM040800 VRB03KT 4SM BR OVC015
     FM041200 06010KT P6SM VCSH SCT030 BKN060
     FM041800 06012KT P6SM SCT030 WS020/07025KT
      AMD LTD TO CLD VIS AND WIND 0406/0415=

USA.gov is the U.S. government's official web portal to all federal, state and local government web resources and services.